Airfield :
LOGIN :

Register | Disclaimer

   EN    FR    IT 

 










Legend :    VFR   Marginal VFR   IFR   Intensive IFR   Very Intensive IFR
Visi :
Ceiling :
>= 8 km
>= 3000ft
5 to 8 km
1000 to 3000 ft
1500m to 5 km
500 to 1000 ft
800 to 1500m
200 to 500 ft
< 800m
< 200 ft
Symbols :   Thunderstorms  Fog  Heavy snow  Heavy precipitations  Wind > 20 kt
SIGMETs :     Misc.  Thunderstorms  Icing  Turbulence  Mountain Waves  Volcanic Ashes







- Airport Elevation : 610 ft
- IATA code : VXO


ESMX - Växjö Kronoberg

CURRENT METAR :
  • 251120Z 02009KT 9999 SCT028CB BKN034 07/00 Q1011

EXPIRED METARs :
  • 251050Z 36011KT 9999 SCT026CB BKN033 06/00 Q1011 RESHRA
  • 251020Z 02009KT 9999 -SHRA FEW013 SCT022CB BKN035 05/02 Q1010
  • 250950Z 35007KT 9999 FEW020 BKN030 05/01 Q1010
  • 250920Z 01008KT 330V030 9999 BKN029 05/03 Q1009
  • 250850Z 36004KT 340V070 9999 SCT015 BKN038 05/04 Q1009

TAF TAF ESMX
Valid from the 25 at 09:00 until the 25 at 18:00 UTC


250830Z 2509/2518 VRB02KT 9999 SCT007 BKN050
PROB40 2509/2512 BKN008
No reported NOTAMs for that airfield.



MET'MAP, your aeronautical weather chart ! - Copyright ORBIFLY December 2007 - Disclaimer

ORBIFLY MET'MAP TEAM :

Programming & Development : Alexandra Zaïnal
Concept & Development : Baudouin d'Aumeries
Co-Development & Prog : Marc-Olivier Méhu
Technical & hardware support : Manuel Goepfert

Contact : metmap@orbifly.com




SOURCES & CREDITS :

   NOAA